createdAt,value
2017-02-19T00:00:52.798Z,1019.46
2017-02-19T00:01:52.813Z,1019.43
2017-02-19T00:02:52.833Z,1019.45
2017-02-19T00:03:52.849Z,1019.46
2017-02-19T00:04:52.867Z,1019.42
2017-02-19T00:05:52.882Z,1019.41
2017-02-19T00:06:52.900Z,1019.42
2017-02-19T00:07:52.921Z,1019.37
2017-02-19T00:09:52.955Z,1019.37
2017-02-19T00:10:52.970Z,1019.36
2017-02-19T00:11:52.990Z,1019.35
2017-02-19T00:12:53.007Z,1019.35
2017-02-19T00:13:53.023Z,1019.34
2017-02-19T00:14:53.039Z,1019.37
2017-02-19T00:15:53.057Z,1019.31
2017-02-19T00:16:53.074Z,1019.33
2017-02-19T00:17:53.095Z,1019.31
2017-02-19T00:18:53.109Z,1019.29
2017-02-19T00:19:53.129Z,1019.28
2017-02-19T00:20:53.148Z,1019.29
2017-02-19T00:21:53.161Z,1019.28
2017-02-19T00:22:53.181Z,1019.29
2017-02-19T00:23:53.197Z,1019.31
2017-02-19T00:24:53.217Z,1019.33
2017-02-19T00:25:53.231Z,1019.3
2017-02-19T00:26:53.248Z,1019.3
2017-02-19T00:27:53.269Z,1019.26
2017-02-19T00:28:53.285Z,1019.27
2017-02-19T00:29:53.302Z,1019.27
2017-02-19T00:30:53.318Z,1019.29
2017-02-19T00:31:53.340Z,1019.32
2017-02-19T00:32:53.354Z,1019.34
2017-02-19T00:33:53.370Z,1019.3
2017-02-19T00:34:53.391Z,1019.27
2017-02-19T00:35:53.408Z,1019.28
2017-02-19T00:36:53.425Z,1019.29
2017-02-19T00:37:53.443Z,1019.28
2017-02-19T00:38:53.460Z,1019.26
2017-02-19T00:39:53.474Z,1019.27
2017-02-19T00:41:53.509Z,1019.28
2017-02-19T00:42:53.526Z,1019.22
2017-02-19T00:43:53.543Z,1019.26
2017-02-19T00:44:53.564Z,1019.21
2017-02-19T00:45:53.580Z,1019.24
2017-02-19T00:46:53.596Z,1019.2
2017-02-19T00:47:53.616Z,1019.22
2017-02-19T00:48:53.630Z,1019.23
2017-02-19T00:49:53.648Z,1019.25
2017-02-19T00:50:53.667Z,1019.25
2017-02-19T00:51:53.708Z,1019.24
2017-02-19T00:52:53.703Z,1019.18
2017-02-19T00:53:53.718Z,1019.23
2017-02-19T00:54:53.736Z,1019.19
2017-02-19T00:55:53.752Z,1019.17
2017-02-19T00:57:53.789Z,1019.14
2017-02-19T00:58:53.803Z,1019.14
2017-02-19T00:59:53.821Z,1019.17
2017-02-19T01:00:53.841Z,1019.12
2017-02-19T01:01:53.858Z,1019.06
2017-02-19T01:02:53.874Z,1019.09
2017-02-19T01:03:53.893Z,1019.06
2017-02-19T01:04:53.909Z,1019.03
2017-02-19T01:05:53.925Z,1019.01
2017-02-19T01:06:53.944Z,1019
2017-02-19T01:07:53.962Z,1018.97
2017-02-19T01:08:53.981Z,1018.96
2017-02-19T01:09:53.996Z,1018.95
2017-02-19T01:10:54.012Z,1018.94
2017-02-19T01:11:54.032Z,1018.9
2017-02-19T01:13:54.066Z,1018.91
2017-02-19T01:14:54.082Z,1018.9
2017-02-19T01:15:54.099Z,1018.9
2017-02-19T01:16:54.116Z,1018.86
2017-02-19T01:17:54.136Z,1018.89
2017-02-19T01:18:54.151Z,1018.86
2017-02-19T01:19:54.169Z,1018.84
2017-02-19T01:20:54.186Z,1018.82
2017-02-19T01:21:54.202Z,1018.76
2017-02-19T01:22:54.219Z,1018.71
2017-02-19T01:23:54.236Z,1018.7
2017-02-19T01:24:54.256Z,1018.71
2017-02-19T01:25:54.272Z,1018.71
2017-02-19T01:26:54.289Z,1018.67
2017-02-19T01:27:54.309Z,1018.68
2017-02-19T01:29:54.341Z,1018.64
2017-02-19T01:30:54.361Z,1018.66
2017-02-19T01:31:54.378Z,1018.67
2017-02-19T01:32:54.395Z,1018.65
2017-02-19T01:33:54.410Z,1018.66
2017-02-19T01:34:54.426Z,1018.65
2017-02-19T01:35:54.444Z,1018.61
2017-02-19T01:36:54.462Z,1018.64
2017-02-19T01:37:54.482Z,1018.59
2017-02-19T01:38:54.497Z,1018.58
2017-02-19T01:39:54.515Z,1018.57
2017-02-19T01:40:54.531Z,1018.56
2017-02-19T01:41:54.553Z,1018.54
2017-02-19T01:42:54.569Z,1018.53
2017-02-19T01:44:54.601Z,1018.5
2017-02-19T01:45:54.618Z,1018.46
2017-02-19T01:46:54.639Z,1018.48
2017-02-19T01:47:54.653Z,1018.48
2017-02-19T01:48:54.673Z,1018.48
2017-02-19T01:49:54.689Z,1018.51
2017-02-19T01:50:54.707Z,1018.5
2017-02-19T01:51:54.724Z,1018.47
2017-02-19T01:52:54.742Z,1018.46
2017-02-19T01:53:54.756Z,1018.47
2017-02-19T01:54:54.774Z,1018.42
2017-02-19T01:55:54.793Z,1018.46
2017-02-19T01:56:54.808Z,1018.4
2017-02-19T01:57:54.827Z,1018.39
2017-02-19T01:58:54.843Z,1018.38
2017-02-19T01:59:54.861Z,1018.35
2017-02-19T02:00:54.877Z,1018.37
2017-02-19T02:01:54.894Z,1018.34
2017-02-19T02:02:54.914Z,1018.36
2017-02-19T02:03:54.931Z,1018.38
2017-02-19T02:04:54.951Z,1018.36
2017-02-19T02:05:54.963Z,1018.38
2017-02-19T02:06:54.981Z,1018.39
2017-02-19T02:07:55.000Z,1018.33
2017-02-19T02:08:55.016Z,1018.35
2017-02-19T02:09:55.034Z,1018.34
2017-02-19T02:10:55.051Z,1018.32
2017-02-19T02:11:55.067Z,1018.3
2017-02-19T02:12:55.084Z,1018.3
2017-02-19T02:13:55.104Z,1018.27
2017-02-19T02:14:55.122Z,1018.3
2017-02-19T02:16:55.156Z,1018.24
2017-02-19T02:17:55.171Z,1018.29
2017-02-19T02:18:55.187Z,1018.29
2017-02-19T02:19:55.205Z,1018.24
2017-02-19T02:20:55.223Z,1018.24
2017-02-19T02:21:55.243Z,1018.2
2017-02-19T02:22:55.258Z,1018.21
2017-02-19T02:23:55.276Z,1018.18
2017-02-19T02:24:55.292Z,1018.2
2017-02-19T02:25:55.311Z,1018.21
2017-02-19T02:26:55.329Z,1018.15
2017-02-19T02:27:55.344Z,1018.14
2017-02-19T02:28:55.361Z,1018.11
2017-02-19T02:29:55.377Z,1018.08
2017-02-19T02:30:55.394Z,1018.08
2017-02-19T02:32:55.532Z,1018.05
2017-02-19T02:33:55.449Z,1018.03
2017-02-19T02:34:55.464Z,1017.97
2017-02-19T02:35:55.481Z,1017.97
2017-02-19T02:36:55.500Z,1017.9
2017-02-19T02:37:55.514Z,1017.94
2017-02-19T02:38:55.534Z,1017.94
2017-02-19T02:39:55.552Z,1017.93
2017-02-19T02:40:55.566Z,1017.94
2017-02-19T02:41:55.583Z,1017.97
2017-02-19T02:42:55.605Z,1017.93
2017-02-19T02:43:55.619Z,1017.9
2017-02-19T02:44:55.638Z,1017.97
2017-02-19T02:45:55.655Z,1017.95
2017-02-19T02:46:55.672Z,1017.97
2017-02-19T02:48:55.704Z,1017.95
2017-02-19T02:49:55.725Z,1018
2017-02-19T02:50:55.739Z,1018.01
2017-02-19T02:51:55.758Z,1017.91
2017-02-19T02:52:55.773Z,1017.97
2017-02-19T02:53:55.794Z,1017.94
2017-02-19T02:54:55.810Z,1017.95
2017-02-19T02:55:55.827Z,1017.9
2017-02-19T02:56:55.844Z,1017.92
2017-02-19T02:57:55.859Z,1017.88
2017-02-19T02:58:55.876Z,1017.85
2017-02-19T02:59:55.893Z,1017.85
2017-02-19T03:00:55.911Z,1017.92
2017-02-19T03:01:55.931Z,1017.92
2017-02-19T03:02:55.948Z,1017.9
2017-02-19T03:04:55.982Z,1017.93
2017-02-19T03:05:55.997Z,1017.92
2017-02-19T03:06:56.014Z,1017.88
2017-02-19T03:07:56.034Z,1017.88
2017-02-19T03:08:56.051Z,1017.86
2017-02-19T03:09:56.065Z,1017.93
2017-02-19T03:10:56.083Z,1017.85
2017-02-19T03:11:56.100Z,1017.86
2017-02-19T03:12:56.117Z,1017.86
2017-02-19T03:13:56.136Z,1017.84
2017-02-19T03:14:56.151Z,1017.85
2017-02-19T03:15:56.172Z,1017.84
2017-02-19T03:16:56.186Z,1017.89
2017-02-19T03:17:56.204Z,1017.83
2017-02-19T03:19:56.239Z,1017.76
2017-02-19T03:20:56.259Z,1017.77
2017-02-19T03:21:56.275Z,1017.77
2017-02-19T03:22:56.290Z,1017.76
2017-02-19T03:23:56.307Z,1017.74
2017-02-19T03:24:56.327Z,1017.75
2017-02-19T03:25:56.342Z,1017.72
2017-02-19T03:26:56.361Z,1017.71
2017-02-19T03:27:56.378Z,1017.7
2017-02-19T03:28:56.396Z,1017.7
2017-02-19T03:29:56.410Z,1017.65
2017-02-19T03:30:56.428Z,1017.7
2017-02-19T03:31:56.446Z,1017.65
2017-02-19T03:32:56.462Z,1017.59
2017-02-19T03:33:56.481Z,1017.63
2017-02-19T03:34:56.499Z,1017.62
2017-02-19T03:35:56.512Z,1017.64
2017-02-19T03:36:56.531Z,1017.66
2017-02-19T03:37:56.552Z,1017.62
2017-02-19T03:38:56.565Z,1017.63
2017-02-19T03:39:56.582Z,1017.62
2017-02-19T03:40:56.603Z,1017.62
2017-02-19T03:41:56.620Z,1017.55
2017-02-19T03:42:56.637Z,1017.65
2017-02-19T03:43:56.651Z,1017.62
2017-02-19T03:44:56.670Z,1017.54
2017-02-19T03:45:56.686Z,1017.62
2017-02-19T03:46:56.703Z,1017.63
2017-02-19T03:47:56.722Z,1017.68
2017-02-19T03:48:56.738Z,1017.6
2017-02-19T03:49:56.754Z,1017.62
2017-02-19T03:51:56.788Z,1017.62
2017-02-19T03:52:56.809Z,1017.57
2017-02-19T03:53:56.826Z,1017.56
2017-02-19T03:54:56.840Z,1017.55
2017-02-19T03:55:56.860Z,1017.55
2017-02-19T03:56:56.875Z,1017.53
2017-02-19T03:57:56.891Z,1017.48
2017-02-19T03:58:56.908Z,1017.5
2017-02-19T03:59:56.933Z,1017.5
2017-02-19T04:00:56.943Z,1017.45
2017-02-19T04:01:56.961Z,1017.46
2017-02-19T04:02:56.980Z,1017.46
2017-02-19T04:03:56.995Z,1017.4
2017-02-19T04:04:57.011Z,1017.43
2017-02-19T04:05:57.032Z,1017.47
2017-02-19T04:07:57.066Z,1017.44
2017-02-19T04:08:57.080Z,1017.46
2017-02-19T04:09:57.099Z,1017.42
2017-02-19T04:10:57.117Z,1017.46
2017-02-19T04:11:57.131Z,1017.44
2017-02-19T04:12:57.148Z,1017.51
2017-02-19T04:13:57.165Z,1017.5
2017-02-19T04:14:57.183Z,1017.49
2017-02-19T04:15:57.201Z,1017.49
2017-02-19T04:16:57.216Z,1017.45
2017-02-19T04:17:57.235Z,1017.4
2017-02-19T04:18:57.250Z,1017.41
2017-02-19T04:19:57.267Z,1017.43
2017-02-19T04:20:57.289Z,1017.38
2017-02-19T04:21:57.302Z,1017.37
2017-02-19T04:23:57.337Z,1017.41
2017-02-19T04:24:57.353Z,1017.34
2017-02-19T04:25:57.372Z,1017.34
2017-02-19T04:26:57.387Z,1017.31
2017-02-19T04:27:57.404Z,1017.32
2017-02-19T04:28:57.421Z,1017.32
2017-02-19T04:29:57.441Z,1017.26
2017-02-19T04:30:57.460Z,1017.25
2017-02-19T04:31:57.472Z,1017.26
2017-02-19T04:32:57.489Z,1017.26
2017-02-19T04:33:57.505Z,1017.25
2017-02-19T04:34:57.523Z,1017.25
2017-02-19T04:35:57.540Z,1017.26
2017-02-19T04:36:57.557Z,1017.27
2017-02-19T04:37:57.575Z,1017.36
2017-02-19T04:39:57.609Z,1017.28
2017-02-19T04:40:57.626Z,1017.28
2017-02-19T04:41:57.642Z,1017.3
2017-02-19T04:42:57.659Z,1017.26
2017-02-19T04:43:57.677Z,1017.26
2017-02-19T04:44:57.694Z,1017.21
2017-02-19T04:45:57.710Z,1017.22
2017-02-19T04:46:57.728Z,1017.24
2017-02-19T04:47:57.746Z,1017.18
2017-02-19T04:48:57.764Z,1017.19
2017-02-19T04:49:57.782Z,1017.19
2017-02-19T04:50:57.798Z,1017.18
2017-02-19T04:51:57.813Z,1017.01
2017-02-19T04:52:57.830Z,1017.13
2017-02-19T04:54:57.867Z,1017.1
2017-02-19T04:55:57.884Z,1017.07
2017-02-19T04:56:57.898Z,1017.1
2017-02-19T04:57:57.916Z,1017.08
2017-02-19T04:58:57.933Z,1017.09
2017-02-19T04:59:57.952Z,1017.07
2017-02-19T05:00:57.972Z,1017.03
2017-02-19T05:01:57.984Z,1017.08
2017-02-19T05:02:58.000Z,1017.06
2017-02-19T05:03:58.019Z,1017.02
2017-02-19T05:04:58.037Z,1017.03
2017-02-19T05:05:58.053Z,1017
2017-02-19T05:06:58.071Z,1017.01
2017-02-19T05:07:58.088Z,1017.02
2017-02-19T05:08:58.105Z,1017
2017-02-19T05:09:58.122Z,1016.99
2017-02-19T05:10:58.137Z,1017.01
2017-02-19T05:11:58.152Z,1017
2017-02-19T05:12:58.170Z,1017.01
2017-02-19T05:13:58.188Z,1016.94
2017-02-19T05:14:58.206Z,1016.94
2017-02-19T05:15:58.222Z,1016.87
2017-02-19T05:16:58.240Z,1016.91
2017-02-19T05:17:58.252Z,1016.9
2017-02-19T05:18:58.269Z,1016.87
2017-02-19T05:19:58.289Z,1016.91
2017-02-19T05:20:58.306Z,1016.89
2017-02-19T05:21:58.320Z,1016.86
2017-02-19T05:22:58.336Z,1016.9
2017-02-19T05:23:58.356Z,1016.92
2017-02-19T05:24:58.369Z,1016.87
2017-02-19T05:26:58.403Z,1016.86
2017-02-19T05:27:58.422Z,1016.86
2017-02-19T05:28:58.437Z,1016.82
2017-02-19T05:29:58.455Z,1016.79
2017-02-19T05:30:58.474Z,1016.81
2017-02-19T05:31:58.485Z,1016.79
2017-02-19T05:32:58.503Z,1016.81
2017-02-19T05:33:58.518Z,1016.77
2017-02-19T05:34:58.535Z,1016.78
2017-02-19T05:35:58.550Z,1016.71
2017-02-19T05:36:58.569Z,1016.68
2017-02-19T05:37:58.584Z,1016.65
2017-02-19T05:38:58.600Z,1016.63
2017-02-19T05:39:58.618Z,1016.61
2017-02-19T05:40:58.634Z,1016.59
2017-02-19T05:42:58.666Z,1016.59
2017-02-19T05:43:58.684Z,1016.56
2017-02-19T05:44:58.701Z,1016.55
2017-02-19T05:45:58.718Z,1016.54
2017-02-19T05:46:58.734Z,1016.57
2017-02-19T05:47:58.747Z,1016.56
2017-02-19T05:48:58.767Z,1016.53
2017-02-19T05:49:58.780Z,1016.53
2017-02-19T05:50:58.797Z,1016.52
2017-02-19T05:51:59.070Z,1016.48
2017-02-19T05:52:58.829Z,1016.44
2017-02-19T05:53:58.849Z,1016.47
2017-02-19T05:54:58.861Z,1016.47
2017-02-19T05:55:58.880Z,1016.45
2017-02-19T05:56:58.896Z,1016.48
2017-02-19T05:58:58.926Z,1016.47
2017-02-19T05:59:58.945Z,1016.46
2017-02-19T06:00:58.959Z,1016.46
2017-02-19T06:01:58.978Z,1016.47
2017-02-19T06:02:58.995Z,1016.47
2017-02-19T06:03:59.011Z,1016.48
2017-02-19T06:04:59.025Z,1016.48
2017-02-19T06:05:59.041Z,1016.45
2017-02-19T06:06:59.055Z,1016.44
2017-02-19T06:07:59.073Z,1016.43
2017-02-19T06:08:59.096Z,1016.38
2017-02-19T06:09:59.103Z,1016.43
2017-02-19T06:10:59.124Z,1016.43
2017-02-19T06:11:59.144Z,1016.42
2017-02-19T06:12:59.158Z,1016.42
2017-02-19T06:14:59.186Z,1016.42
2017-02-19T06:15:59.200Z,1016.43
2017-02-19T06:16:59.215Z,1016.43
2017-02-19T06:17:59.234Z,1016.41
2017-02-19T06:18:59.248Z,1016.42
2017-02-19T06:19:59.267Z,1016.42
2017-02-19T06:20:59.280Z,1016.4
2017-02-19T06:21:59.303Z,1016.44
2017-02-19T06:22:59.314Z,1016.44
2017-02-19T06:23:59.327Z,1016.49
2017-02-19T06:24:59.346Z,1016.46
2017-02-19T06:25:59.362Z,1016.41
2017-02-19T06:26:59.376Z,1016.41
2017-02-19T06:27:59.392Z,1016.36
2017-02-19T06:29:59.425Z,1016.36
2017-02-19T06:30:59.440Z,1016.35
2017-02-19T06:31:59.456Z,1016.4
2017-02-19T06:32:59.476Z,1016.3
2017-02-19T06:33:59.489Z,1016.3
2017-02-19T06:34:59.508Z,1016.33
2017-02-19T06:35:59.520Z,1016.34
2017-02-19T06:36:59.537Z,1016.4
2017-02-19T06:37:59.554Z,1016.44
2017-02-19T06:38:59.570Z,1016.43
2017-02-19T06:39:59.584Z,1016.44
2017-02-19T06:40:59.604Z,1016.42
2017-02-19T06:41:59.618Z,1016.43
2017-02-19T06:42:59.635Z,1016.48
2017-02-19T06:43:59.652Z,1016.51
2017-02-19T06:44:59.666Z,1016.46
2017-02-19T06:45:59.683Z,1016.47
2017-02-19T06:46:59.700Z,1016.5
2017-02-19T06:47:59.716Z,1016.52
2017-02-19T06:48:59.732Z,1016.54
2017-02-19T06:49:59.747Z,1016.56
2017-02-19T06:50:59.765Z,1016.56
2017-02-19T06:51:59.781Z,1016.55
2017-02-19T06:52:59.794Z,1016.59
2017-02-19T06:53:59.812Z,1016.64
2017-02-19T06:54:59.827Z,1016.62
2017-02-19T06:55:59.847Z,1016.64
2017-02-19T06:56:59.862Z,1016.68
2017-02-19T06:57:59.876Z,1016.67
2017-02-19T06:58:59.896Z,1016.71
2017-02-19T06:59:59.911Z,1016.7
2017-02-19T07:01:59.945Z,1016.69
2017-02-19T07:02:59.960Z,1016.66
2017-02-19T07:03:59.974Z,1016.72
2017-02-19T07:04:59.994Z,1016.7
2017-02-19T07:06:00.008Z,1016.68
2017-02-19T07:07:00.027Z,1016.68
2017-02-19T07:08:00.039Z,1016.65
2017-02-19T07:09:00.059Z,1016.68
2017-02-19T07:10:00.074Z,1016.72
2017-02-19T07:11:00.093Z,1016.73
2017-02-19T07:12:00.110Z,1016.72
2017-02-19T07:13:00.126Z,1016.77
2017-02-19T07:14:00.145Z,1016.78
2017-02-19T07:15:00.160Z,1016.77
2017-02-19T07:16:00.180Z,1016.74
2017-02-19T07:18:00.218Z,1016.76
2017-02-19T07:19:00.233Z,1016.72
2017-02-19T07:20:00.254Z,1016.72
2017-02-19T07:21:00.274Z,1016.71
2017-02-19T07:22:00.293Z,1016.76
2017-02-19T07:23:00.311Z,1016.75
2017-02-19T07:24:00.331Z,1016.77
2017-02-19T07:25:00.348Z,1016.75
2017-02-19T07:26:00.370Z,1016.72
2017-02-19T07:27:00.386Z,1016.72
2017-02-19T07:28:00.409Z,1016.68
2017-02-19T07:29:00.428Z,1016.64
2017-02-19T07:30:00.446Z,1016.62
2017-02-19T07:31:00.463Z,1016.58
2017-02-19T07:32:00.484Z,1016.51
2017-02-19T07:34:00.519Z,1016.53
2017-02-19T07:35:00.539Z,1016.5
2017-02-19T07:36:00.558Z,1016.52
2017-02-19T07:37:00.578Z,1016.45
2017-02-19T07:38:00.594Z,1016.5
2017-02-19T07:39:00.615Z,1016.43
2017-02-19T07:40:00.632Z,1016.4
2017-02-19T07:41:00.652Z,1016.4
2017-02-19T07:42:00.671Z,1016.41
2017-02-19T07:43:00.688Z,1016.39
2017-02-19T07:44:00.705Z,1016.4
2017-02-19T07:45:00.724Z,1016.39
2017-02-19T07:46:00.741Z,1016.36
2017-02-19T07:47:00.759Z,1016.36
2017-02-19T07:48:00.779Z,1016.32
2017-02-19T07:50:00.817Z,1016.39
2017-02-19T07:51:00.832Z,1016.36
2017-02-19T07:52:00.849Z,1016.38
2017-02-19T07:53:00.868Z,1016.4
2017-02-19T07:54:00.890Z,1016.41
2017-02-19T07:55:00.903Z,1016.34
2017-02-19T07:56:00.921Z,1016.3
2017-02-19T07:57:00.942Z,1016.28
2017-02-19T07:58:00.959Z,1016.26
2017-02-19T07:59:00.976Z,1016.27
2017-02-19T08:00:00.994Z,1016.3
2017-02-19T08:01:01.013Z,1016.27
2017-02-19T08:02:01.033Z,1016.25
2017-02-19T08:03:01.051Z,1016.26
2017-02-19T08:05:01.093Z,1016.26
2017-02-19T08:06:01.109Z,1016.25
2017-02-19T08:07:01.127Z,1016.22
2017-02-19T08:08:01.147Z,1016.25
2017-02-19T08:09:01.186Z,1016.23
2017-02-19T08:10:01.185Z,1016.16
2017-02-19T08:11:01.222Z,1016.22
2017-02-19T08:12:01.225Z,1016.11
2017-02-19T08:13:01.265Z,1016.12
2017-02-19T08:14:01.266Z,1016.1
2017-02-19T08:15:01.303Z,1016.1
2017-02-19T08:16:01.305Z,1016.02
2017-02-19T08:17:01.327Z,1016.04
2017-02-19T08:18:01.345Z,1016.03
2017-02-19T08:19:01.362Z,1015.96
2017-02-19T08:20:01.383Z,1015.97
2017-02-19T08:21:01.403Z,1015.95
2017-02-19T08:22:01.423Z,1015.93
2017-02-19T08:23:01.462Z,1015.99
2017-02-19T08:24:01.460Z,1015.93
2017-02-19T08:25:01.485Z,1015.91
2017-02-19T08:26:01.504Z,1015.91
2017-02-19T08:27:01.541Z,1015.97
2017-02-19T08:28:01.543Z,1016.02
2017-02-19T08:29:01.572Z,1016
2017-02-19T08:30:01.580Z,1016.05
2017-02-19T08:31:01.603Z,1016.03
2017-02-19T08:32:01.619Z,1016.01
2017-02-19T08:33:01.644Z,1015.97
2017-02-19T08:34:01.659Z,1015.99
2017-02-19T08:35:01.702Z,1015.99
2017-02-19T08:37:01.740Z,1015.98
2017-02-19T08:38:01.741Z,1015.92
2017-02-19T08:39:01.779Z,1015.89
2017-02-19T08:40:01.780Z,1015.88
2017-02-19T08:41:01.820Z,1015.87
2017-02-19T08:42:01.821Z,1015.87
2017-02-19T08:43:01.862Z,1015.84
2017-02-19T08:44:01.856Z,1015.88
2017-02-19T08:45:01.883Z,1015.85
2017-02-19T08:46:01.895Z,1015.86
2017-02-19T08:47:01.915Z,1015.79
2017-02-19T08:48:01.936Z,1015.77
2017-02-19T08:49:01.977Z,1015.74
2017-02-19T08:50:01.978Z,1015.75
2017-02-19T08:51:02.010Z,1015.77
2017-02-19T08:53:02.058Z,1015.75
2017-02-19T08:54:02.060Z,1015.74
2017-02-19T08:55:02.081Z,1015.73
2017-02-19T08:56:02.098Z,1015.72
2017-02-19T08:57:02.122Z,1015.75
2017-02-19T08:58:02.141Z,1015.71
2017-02-19T08:59:02.178Z,1015.67
2017-02-19T09:00:02.180Z,1015.67
2017-02-19T09:01:02.224Z,1015.66
2017-02-19T09:02:02.220Z,1015.69
2017-02-19T09:03:02.246Z,1015.62
2017-02-19T09:04:02.262Z,1015.66
2017-02-19T09:05:02.304Z,1015.67
2017-02-19T09:06:02.302Z,1015.64
2017-02-19T09:07:02.324Z,1015.65
2017-02-19T09:09:02.374Z,1015.63
2017-02-19T09:10:02.383Z,1015.65
2017-02-19T09:11:02.853Z,1015.64
2017-02-19T09:12:02.424Z,1015.57
2017-02-19T09:13:02.442Z,1015.58
2017-02-19T09:14:02.463Z,1015.5
2017-02-19T09:15:02.501Z,1015.53
2017-02-19T09:16:02.502Z,1015.54
2017-02-19T09:17:02.543Z,1015.55
2017-02-19T09:18:02.542Z,1015.54
2017-02-19T09:19:02.580Z,1015.51
2017-02-19T09:20:02.582Z,1015.49
2017-02-19T09:21:02.630Z,1015.5
2017-02-19T09:22:02.621Z,1015.5
2017-02-19T09:23:02.662Z,1015.45
2017-02-19T09:25:02.700Z,1015.53
2017-02-19T09:26:02.701Z,1015.54
2017-02-19T09:27:02.735Z,1015.51
2017-02-19T09:28:02.740Z,1015.55
2017-02-19T09:29:02.780Z,1015.59
2017-02-19T09:30:02.778Z,1015.54
2017-02-19T09:31:02.821Z,1015.61
2017-02-19T09:32:02.821Z,1015.55
2017-02-19T09:33:02.858Z,1015.6
2017-02-19T09:34:02.859Z,1015.57
2017-02-19T09:35:02.905Z,1015.6
2017-02-19T09:36:02.897Z,1015.56
2017-02-19T09:37:02.934Z,1015.54
2017-02-19T09:38:02.939Z,1015.56
2017-02-19T09:40:02.976Z,1015.47
2017-02-19T09:41:02.996Z,1015.51
2017-02-19T09:42:03.018Z,1015.48
2017-02-19T09:43:03.035Z,1015.5
2017-02-19T09:44:03.055Z,1015.45
2017-02-19T09:45:03.076Z,1015.45
2017-02-19T09:46:03.097Z,1015.45
2017-02-19T09:47:03.116Z,1015.4
2017-02-19T09:48:03.133Z,1015.37
2017-02-19T09:49:03.153Z,1015.42
2017-02-19T09:50:03.175Z,1015.42
2017-02-19T09:51:03.195Z,1015.35
2017-02-19T09:52:03.212Z,1015.41
2017-02-19T09:53:03.232Z,1015.35
2017-02-19T09:54:03.252Z,1015.31
2017-02-19T09:55:03.271Z,1015.29
2017-02-19T09:56:03.291Z,1015.3
2017-02-19T09:57:03.312Z,1015.28
2017-02-19T09:58:03.331Z,1015.25
2017-02-19T09:59:03.349Z,1015.28
2017-02-19T10:00:03.369Z,1015.34
2017-02-19T10:01:03.390Z,1015.29
2017-02-19T10:02:03.412Z,1015.34
2017-02-19T10:03:03.432Z,1015.31
2017-02-19T10:04:03.449Z,1015.29
2017-02-19T10:05:03.470Z,1015.33
2017-02-19T10:06:03.487Z,1015.28
2017-02-19T10:07:03.508Z,1015.32
2017-02-19T10:08:03.527Z,1015.3
2017-02-19T10:09:03.548Z,1015.3
2017-02-19T10:10:03.566Z,1015.3
2017-02-19T10:12:03.608Z,1015.32
2017-02-19T10:13:03.626Z,1015.28
2017-02-19T10:14:03.648Z,1015.24
2017-02-19T10:15:03.668Z,1015.23
2017-02-19T10:16:03.688Z,1015.26
2017-02-19T10:17:03.705Z,1015.25
2017-02-19T10:18:03.730Z,1015.28
2017-02-19T10:19:03.747Z,1015.27
2017-02-19T10:20:03.763Z,1015.25
2017-02-19T10:21:03.786Z,1015.26
2017-02-19T10:22:03.803Z,1015.27
2017-02-19T10:23:03.823Z,1015.26
2017-02-19T10:24:03.843Z,1015.28
2017-02-19T10:25:03.866Z,1015.27
2017-02-19T10:26:03.881Z,1015.2
2017-02-19T10:28:03.922Z,1015.25
2017-02-19T10:29:03.943Z,1015.22
2017-02-19T10:30:03.961Z,1015.24
2017-02-19T10:31:03.984Z,1015.22
2017-02-19T10:32:04.004Z,1015.25
2017-02-19T10:33:04.024Z,1015.25
2017-02-19T10:34:04.040Z,1015.24
2017-02-19T10:35:04.061Z,1015.21
2017-02-19T10:36:04.080Z,1015.18
2017-02-19T10:37:04.101Z,1015.21
2017-02-19T10:38:04.121Z,1015.2
2017-02-19T10:39:04.143Z,1015.21
2017-02-19T10:40:04.161Z,1015.24
2017-02-19T10:41:04.185Z,1015.22
2017-02-19T10:42:04.207Z,1015.17
2017-02-19T10:44:04.240Z,1015.13
2017-02-19T10:45:04.264Z,1015.15
2017-02-19T10:46:04.284Z,1015.16
2017-02-19T10:47:04.306Z,1015.17
2017-02-19T10:48:04.323Z,1015.13
2017-02-19T10:49:04.343Z,1015.07
2017-02-19T10:50:04.364Z,1015.09
2017-02-19T10:51:04.384Z,1015.1
2017-02-19T10:52:04.405Z,1015.09
2017-02-19T10:53:04.422Z,1015.08
2017-02-19T10:54:04.443Z,1015.06
2017-02-19T10:55:04.465Z,1015.08
2017-02-19T10:56:04.483Z,1015.08
2017-02-19T10:57:04.503Z,1015.04
2017-02-19T10:58:04.524Z,1015.04
2017-02-19T11:00:04.564Z,1014.92
2017-02-19T11:01:04.586Z,1014.92
2017-02-19T11:02:04.603Z,1014.9
2017-02-19T11:03:04.624Z,1014.88
2017-02-19T11:04:04.644Z,1014.91
2017-02-19T11:05:04.664Z,1014.81
2017-02-19T11:06:04.684Z,1014.78
2017-02-19T11:07:04.705Z,1014.74
2017-02-19T11:08:04.725Z,1014.76
2017-02-19T11:09:04.747Z,1014.74
2017-02-19T11:10:04.765Z,1014.74
2017-02-19T11:11:04.786Z,1014.74
2017-02-19T11:12:04.806Z,1014.68
2017-02-19T11:13:04.826Z,1014.64
2017-02-19T11:15:04.870Z,1014.6
2017-02-19T11:16:04.890Z,1014.6
2017-02-19T11:17:04.912Z,1014.59
2017-02-19T11:18:04.931Z,1014.55
2017-02-19T11:19:04.950Z,1014.54
2017-02-19T11:20:04.969Z,1014.52
2017-02-19T11:21:04.993Z,1014.5
2017-02-19T11:22:05.011Z,1014.45
2017-02-19T11:23:05.030Z,1014.42
2017-02-19T11:24:05.054Z,1014.38
2017-02-19T11:25:05.074Z,1014.39
2017-02-19T11:26:05.092Z,1014.33
2017-02-19T11:27:05.112Z,1014.33
2017-02-19T11:28:05.136Z,1014.29
2017-02-19T11:29:05.153Z,1014.32
2017-02-19T11:30:05.174Z,1014.32
2017-02-19T11:31:05.194Z,1014.26
2017-02-19T11:32:05.218Z,1014.28
2017-02-19T11:33:05.236Z,1014.27
2017-02-19T11:34:05.254Z,1014.3
2017-02-19T11:35:05.276Z,1014.25
2017-02-19T11:36:05.299Z,1014.21
2017-02-19T11:37:05.318Z,1014.19
2017-02-19T11:38:05.337Z,1014.15
2017-02-19T11:39:05.358Z,1014.2
2017-02-19T11:40:05.382Z,1014.11
2017-02-19T11:41:05.403Z,1014.1
2017-02-19T11:42:05.422Z,1014.12
2017-02-19T11:43:05.441Z,1014.09
2017-02-19T11:44:05.465Z,1014.09
2017-02-19T11:45:05.485Z,1014.07
2017-02-19T11:47:05.523Z,1014.01
2017-02-19T11:48:05.545Z,1014
2017-02-19T11:49:05.564Z,1013.97
2017-02-19T11:50:05.585Z,1013.99
2017-02-19T11:51:05.608Z,1013.9
2017-02-19T11:52:05.626Z,1013.92
2017-02-19T11:53:05.648Z,1013.88
2017-02-19T11:54:05.668Z,1013.9
2017-02-19T11:55:05.689Z,1013.87
2017-02-19T11:56:05.709Z,1013.86
2017-02-19T11:57:05.733Z,1013.92
2017-02-19T11:58:05.751Z,1013.91
2017-02-19T11:59:05.773Z,1013.94
2017-02-19T12:00:05.795Z,1013.86
2017-02-19T12:01:05.815Z,1013.86
2017-02-19T12:03:05.858Z,1013.83
2017-02-19T12:04:05.875Z,1013.84
2017-02-19T12:05:05.896Z,1013.79
2017-02-19T12:06:05.917Z,1013.82
2017-02-19T12:07:05.937Z,1013.79
2017-02-19T12:08:05.960Z,1013.76
2017-02-19T12:09:05.982Z,1013.75
2017-02-19T12:10:06.004Z,1013.74
2017-02-19T12:11:06.021Z,1013.7
2017-02-19T12:12:06.041Z,1013.67
2017-02-19T12:13:06.066Z,1013.72
2017-02-19T12:14:06.111Z,1013.65
2017-02-19T12:15:06.107Z,1013.66
2017-02-19T12:16:06.128Z,1013.62
2017-02-19T12:17:06.148Z,1013.64
2017-02-19T12:19:06.186Z,1013.63
2017-02-19T12:20:06.207Z,1013.59
2017-02-19T12:21:06.232Z,1013.59
2017-02-19T12:22:06.253Z,1013.63
2017-02-19T12:23:06.272Z,1013.57
2017-02-19T12:24:06.294Z,1013.55
2017-02-19T12:25:06.313Z,1013.58
2017-02-19T12:26:06.337Z,1013.6
2017-02-19T12:27:06.354Z,1013.6
2017-02-19T12:28:06.375Z,1013.59
2017-02-19T12:29:06.397Z,1013.52
2017-02-19T12:30:06.417Z,1013.49
2017-02-19T12:31:06.437Z,1013.45
2017-02-19T12:32:06.458Z,1013.42
2017-02-19T12:33:06.478Z,1013.45
2017-02-19T12:35:06.548Z,1013.42
2017-02-19T12:36:06.543Z,1013.46
2017-02-19T12:37:06.565Z,1013.43
2017-02-19T12:38:06.584Z,1013.37
2017-02-19T12:39:06.603Z,1013.41
2017-02-19T12:40:06.626Z,1013.36
2017-02-19T12:41:06.645Z,1013.47
2017-02-19T12:42:06.669Z,1013.36
2017-02-19T12:43:06.687Z,1013.33
2017-02-19T12:44:06.709Z,1013.36
2017-02-19T12:45:06.729Z,1013.32
2017-02-19T12:46:06.752Z,1013.34
2017-02-19T12:47:06.773Z,1013.24
2017-02-19T12:48:06.793Z,1013.24
2017-02-19T12:50:06.837Z,1013.33